Time;durP1;ratioP1;P1;durP2;ratioP2;P2;SDS_P1;SDS_P2;PMS_P1;PMS_P2;Temp;Humidity;BMP_temperature;BMP_pressure;BME280_temperature;BME280_humidity;BME280_pressure;Samples;Min_cycle;Max_cycle;Signal;HPM_P1;HPM_P2
2023/09/02 00:00:31;;;;;;;10.43;2.42;;;;;;;16.43;100.00;99919.44;12180619;19;20086;-81
2023/09/02 00:04:33;;;;;;;7.53;2.60;;;;;;;16.39;100.00;99925.59;12182730;19;20027;-81
2023/09/02 00:08:35;;;;;;;4.82;2.22;;;;;;;16.37;100.00;99927.81;12173183;19;20002;-81
2023/09/02 00:12:36;;;;;;;9.23;2.53;;;;;;;16.34;100.00;99931.16;12208726;19;20035;-81
2023/09/02 00:16:39;;;;;;;7.45;2.63;;;;;;;16.34;100.00;99928.38;12203469;19;20011;-81
2023/09/02 00:20:40;;;;;;;9.07;2.92;;;;;;;16.31;100.00;99931.75;12166030;19;20010;-81
2023/09/02 00:24:43;;;;;;;5.68;2.67;;;;;;;16.28;100.00;99931.47;12192466;19;20580;-81
2023/09/02 00:28:45;;;;;;;6.13;2.33;;;;;;;16.28;100.00;99934.25;12191481;19;20050;-81
2023/09/02 00:32:46;;;;;;;6.57;2.53;;;;;;;16.24;100.00;99920.09;12179502;19;20525;-82
2023/09/02 00:36:49;;;;;;;7.10;2.67;;;;;;;16.23;100.00;99915.63;12203145;19;20050;-81
2023/09/02 00:41:00;;;;;;;8.63;3.00;;;;;;;16.21;100.00;99920.69;12190907;19;20017;-82
2023/09/02 00:45:02;;;;;;;5.93;2.40;;;;;;;16.19;100.00;99922.91;12171359;19;20007;-82
2023/09/02 00:49:05;;;;;;;9.50;2.90;;;;;;;16.16;100.00;99924.28;12193066;19;20014;-81
2023/09/02 00:53:06;;;;;;;8.70;2.83;;;;;;;16.13;100.00;99922.09;12170576;19;20482;-81
2023/09/02 00:57:09;;;;;;;6.20;2.70;;;;;;;16.12;100.00;99914.00;12196320;19;20368;-82
2023/09/02 01:01:11;;;;;;;7.07;2.65;;;;;;;16.11;100.00;99910.41;12195047;19;20094;-81
2023/09/02 01:05:14;;;;;;;6.97;3.00;;;;;;;16.10;100.00;99921.81;12173562;19;20075;-81
2023/09/02 01:09:16;;;;;;;8.00;3.00;;;;;;;16.04;100.00;99921.00;12191169;19;21508;-81
2023/09/02 01:13:18;;;;;;;8.25;3.50;;;;;;;16.04;100.00;99922.97;12193202;19;20696;-81
2023/09/02 01:17:21;;;;;;;7.37;2.80;;;;;;;16.04;100.00;99925.75;12171060;19;20043;-81
2023/09/02 01:21:41;;;;;;;9.90;3.22;;;;;;;16.03;100.00;99940.72;12182041;19;20017;-81
2023/09/02 01:26:04;;;;;;;8.10;2.70;;;;;;;15.98;100.00;99944.38;12190584;19;20042;-81
2023/09/02 01:30:12;;;;;;;6.55;2.50;;;;;;;15.94;100.00;99948.81;12162174;19;20014;-82
2023/09/02 01:34:16;;;;;;;7.63;3.13;;;;;;;15.92;100.00;99951.06;12188708;19;20007;-82
2023/09/02 01:38:21;;;;;;;9.45;3.38;;;;;;;15.91;100.00;99947.47;12168912;19;20036;-82
2023/09/02 01:42:24;;;;;;;11.70;3.08;;;;;;;15.88;100.00;99948.03;12189106;19;20079;-82
2023/09/02 01:46:25;;;;;;;;;;;;;;;15.87;100.00;99951.91;12189189;19;20022;-81
2023/09/02 01:50:30;;;;;;;5.97;3.33;;;;;;;15.86;100.00;99950.25;12165043;19;19911;-80
2023/09/02 01:54:33;;;;;;;9.80;3.50;;;;;;;15.87;100.00;99963.00;12188353;19;20086;-81
2023/09/02 01:58:34;;;;;;;8.40;3.33;;;;;;;15.83;100.00;99956.38;12188441;19;20483;-81
2023/09/02 02:02:38;;;;;;;8.90;4.07;;;;;;;15.81;100.00;99953.03;12165133;19;20035;-81
2023/09/02 02:06:42;;;;;;;9.27;3.35;;;;;;;15.79;100.00;99957.19;12177724;19;20011;-81
2023/09/02 02:10:45;;;;;;;11.80;4.38;;;;;;;15.81;100.00;99969.69;12183952;19;20502;-81
2023/09/02 02:14:47;;;;;;;11.50;3.88;;;;;;;15.77;100.00;99968.59;12165447;19;20020;-81
2023/09/02 02:18:49;;;;;;;13.93;3.85;;;;;;;15.74;100.00;99971.94;12186235;19;20066;-80
2023/09/02 02:22:51;;;;;;;5.18;3.30;;;;;;;15.73;100.00;99964.69;12177013;19;20038;-81
2023/09/02 02:26:53;;;;;;;10.48;4.10;;;;;;;15.71;100.00;99972.50;12155772;19;20019;-80
2023/09/02 02:30:57;;;;;;;9.93;3.67;;;;;;;15.70;100.00;99970.81;12183774;19;20147;-81
2023/09/02 02:35:00;;;;;;;8.68;4.10;;;;;;;15.71;100.00;99969.72;12168427;19;20139;-81
2023/09/02 02:39:05;;;;;;;10.10;3.53;;;;;;;15.75;100.00;99970.81;12181758;19;20028;-81
2023/09/02 02:43:07;;;;;;;9.32;3.38;;;;;;;15.72;100.00;99972.22;12180605;19;20011;-81
2023/09/02 02:47:09;;;;;;;7.90;3.03;;;;;;;15.71;100.00;99978.06;12162324;19;20066;-80
2023/09/02 02:51:10;;;;;;;7.18;3.08;;;;;;;15.67;100.00;99974.97;12182139;19;20042;-81
2023/09/02 02:55:13;;;;;;;8.98;3.03;;;;;;;15.66;100.00;99983.56;12186226;19;20949;-81
2023/09/02 02:59:17;;;;;;;;;;;;;;;15.61;100.00;99978.03;12159065;19;20035;-81
2023/09/02 03:03:20;;;;;;;8.23;3.22;;;;;;;15.59;100.00;99980.25;12183096;19;20324;-80
2023/09/02 03:07:23;;;;;;;9.40;2.85;;;;;;;15.59;100.00;99981.09;12179883;19;20560;-80
2023/09/02 03:11:25;;;;;;;9.23;2.72;;;;;;;15.57;100.00;99990.81;12162588;19;20013;-81
2023/09/02 03:15:27;;;;;;;8.55;3.13;;;;;;;15.52;100.00;99982.47;12185362;19;20010;-81
2023/09/02 03:19:30;;;;;;;8.98;3.20;;;;;;;15.53;100.00;99989.69;12183653;19;20466;-80
2023/09/02 03:23:34;;;;;;;7.82;3.45;;;;;;;15.52;100.00;99986.06;12160482;19;20010;-80
2023/09/02 03:27:37;;;;;;;7.70;3.15;;;;;;;15.53;100.00;99978.56;12182627;19;20493;-80
2023/09/02 03:31:40;;;;;;;10.68;3.00;;;;;;;15.53;100.00;99978.56;12190625;19;21944;-81
2023/09/02 03:35:44;;;;;;;6.45;2.78;;;;;;;15.58;100.00;99987.75;12161002;19;20747;-80
2023/09/02 03:39:46;;;;;;;10.40;3.00;;;;;;;15.61;100.00;99991.91;12187028;19;19999;-81
2023/09/02 03:43:48;;;;;;;6.03;2.70;;;;;;;15.63;100.00;99996.06;12179796;19;21845;-81
2023/09/02 03:47:50;;;;;;;6.25;2.80;;;;;;;15.62;100.00;99990.81;12158804;19;19998;-80
2023/09/02 03:51:53;;;;;;;7.22;2.90;;;;;;;15.59;100.00;99999.72;12181114;19;20017;-80
2023/09/02 03:55:58;;;;;;;5.10;2.50;;;;;;;15.58;100.00;99995.25;12160279;19;20014;-81
2023/09/02 04:00:01;;;;;;;7.35;2.53;;;;;;;15.54;100.00;100003.31;12179389;19;20014;-80
2023/09/02 04:04:03;;;;;;;4.80;2.15;;;;;;;15.51;100.00;100009.41;12182349;19;20002;-80
2023/09/02 04:08:06;;;;;;;3.40;2.00;;;;;;;15.49;100.00;100006.06;12157484;19;21163;-80
2023/09/02 04:12:08;;;;;;;9.18;2.50;;;;;;;15.49;100.00;100004.13;12180812;19;20003;-81
2023/09/02 04:16:10;;;;;;;5.82;2.40;;;;;;;15.50;100.00;99999.44;12184823;19;20018;-81
2023/09/02 04:20:12;;;;;;;6.55;3.53;;;;;;;15.46;100.00;100007.47;12159364;19;20011;-80
2023/09/02 04:24:14;;;;;;;9.25;4.03;;;;;;;15.46;100.00;100013.00;12180665;19;20014;-80
2023/09/02 04:28:17;;;;;;;8.27;3.30;;;;;;;15.47;100.00;100017.47;12180141;19;20045;-80
2023/09/02 04:32:19;;;;;;;;;;;;;;;15.45;100.00;100027.19;12166404;19;20011;-80
2023/09/02 04:36:23;;;;;;;6.55;2.85;;;;;;;15.45;100.00;100036.34;12185220;19;19919;-80
2023/09/02 04:40:26;;;;;;;11.10;3.40;;;;;;;15.44;100.00;100034.69;12175001;19;20082;-80
2023/09/02 04:44:28;;;;;;;7.45;2.92;;;;;;;15.43;100.00;100030.22;12159332;19;20013;-80
2023/09/02 04:48:30;;;;;;;8.27;3.13;;;;;;;15.44;100.00;100026.38;12178466;19;20006;-80
2023/09/02 04:52:32;;;;;;;7.45;4.00;;;;;;;15.39;100.00;100026.34;12179316;19;20014;-80
2023/09/02 04:56:34;;;;;;;5.47;3.27;;;;;;;15.36;100.00;100018.56;12167796;19;20087;-80
2023/09/02 05:00:38;;;;;;;6.13;3.40;;;;;;;15.36;100.00;100020.53;12202627;19;20355;-81
2023/09/02 05:04:40;;;;;;;7.15;3.30;;;;;;;15.38;100.00;100023.88;12196207;19;20021;-80
2023/09/02 05:08:41;;;;;;;8.50;3.70;;;;;;;15.36;100.00;100026.91;12167741;19;20007;-79
2023/09/02 05:12:44;;;;;;;;;;;;;;;15.37;100.00;100031.34;12196068;19;20042;-80
2023/09/02 05:16:47;;;;;;;10.55;4.10;;;;;;;15.40;100.00;100029.97;12193147;19;19939;-79
2023/09/02 05:20:53;;;;;;;10.25;4.35;;;;;;;15.47;100.00;100033.31;12167118;19;20006;-80
2023/09/02 05:24:55;;;;;;;10.43;4.50;;;;;;;15.56;100.00;100033.59;12193292;19;20019;-79
2023/09/02 05:28:57;;;;;;;11.00;3.90;;;;;;;15.68;100.00;100026.66;12188470;19;20038;-80
2023/09/02 05:32:59;;;;;;;8.67;4.47;;;;;;;15.82;100.00;100024.13;12171142;19;20013;-80
2023/09/02 05:37:02;;;;;;;10.63;5.07;;;;;;;16.01;100.00;100029.16;12192637;19;20679;-80
2023/09/02 05:41:04;;;;;;;;;;;;;;;16.16;100.00;100031.88;12163984;19;20373;-80
2023/09/02 05:45:06;;;;;;;11.27;5.05;;;;;;;16.32;100.00;100027.13;12188003;19;19943;-80
2023/09/02 05:49:10;;;;;;;7.43;3.50;;;;;;;16.53;100.00;100033.44;12187706;19;20805;-80
2023/09/02 05:53:12;;;;;;;5.53;3.60;;;;;;;16.60;100.00;100034.81;12168791;19;21467;-80
2023/09/02 05:57:14;;;;;;;6.05;3.38;;;;;;;16.64;100.00;100024.75;12188508;19;20411;-80
2023/09/02 06:01:16;;;;;;;6.70;3.25;;;;;;;16.66;100.00;100041.19;12190131;19;20007;-80
2023/09/02 06:05:18;;;;;;;6.82;3.90;;;;;;;16.64;100.00;100032.28;12201075;19;20010;-80
2023/09/02 06:09:19;;;;;;;6.32;3.78;;;;;;;16.72;100.00;100045.63;12220758;19;20042;-80
2023/09/02 06:13:21;;;;;;;6.53;3.80;;;;;;;16.74;100.00;100046.13;12215811;19;20011;-80
2023/09/02 06:17:23;;;;;;;8.10;3.63;;;;;;;16.80;100.00;100050.59;12174657;19;20028;-81
2023/09/02 06:21:25;;;;;;;5.20;3.17;;;;;;;16.85;100.00;100050.56;12191171;19;20018;-80
2023/09/02 06:25:27;;;;;;;6.50;3.95;;;;;;;16.90;100.00;100052.53;12194101;19;20018;-80
2023/09/02 06:29:32;;;;;;;8.73;4.40;;;;;;;16.92;100.00;100050.25;12169252;19;20010;-80
2023/09/02 06:33:34;;;;;;;11.20;4.70;;;;;;;16.98;100.00;100062.19;12187651;19;20010;-80
2023/09/02 06:37:36;;;;;;;11.00;5.38;;;;;;;17.04;100.00;100061.06;12189729;19;20003;-80
2023/09/02 06:41:38;;;;;;;8.05;4.43;;;;;;;17.14;100.00;100068.53;12166517;19;20011;-80
2023/09/02 06:45:47;;;;;;;13.88;6.65;;;;;;;17.16;100.00;100067.09;12188084;19;20109;-80
2023/09/02 06:49:49;;;;;;;15.65;7.18;;;;;;;17.24;100.00;100062.91;12189186;19;20018;-81
2023/09/02 06:53:51;;;;;;;11.40;5.80;;;;;;;17.27;100.00;100074.28;12167118;19;20019;-81
2023/09/02 06:57:53;;;;;;;11.25;5.10;;;;;;;17.36;100.00;100068.94;12187076;19;20023;-81
2023/09/02 07:01:54;;;;;;;9.88;5.72;;;;;;;17.56;100.00;100076.34;12186009;19;20528;-80
2023/09/02 07:06:06;;;;;;;8.35;4.40;;;;;;;17.78;100.00;100075.91;12166342;19;20077;-81
2023/09/02 07:10:09;;;;;;;11.63;4.90;;;;;;;18.02;100.00;100081.56;12187107;19;20017;-80
2023/09/02 07:14:10;;;;;;;7.43;4.22;;;;;;;18.21;100.00;100085.28;12165188;19;20007;-81
2023/09/02 07:18:12;;;;;;;7.47;4.07;;;;;;;18.46;100.00;100094.50;12184940;19;20113;-81
2023/09/02 07:22:14;;;;;;;5.10;2.92;;;;;;;18.63;100.00;100092.09;12169281;19;20057;-80
2023/09/02 07:26:16;;;;;;;6.47;3.75;;;;;;;18.88;100.00;100102.13;12156025;19;20027;-80
2023/09/02 07:30:18;;;;;;;6.10;3.03;;;;;;;19.18;100.00;100114.03;12180240;19;20006;-80
2023/09/02 07:34:20;;;;;;;5.25;2.63;;;;;;;19.51;100.00;100119.75;12184828;19;20248;-80
2023/09/02 07:38:21;;;;;;;5.60;2.47;;;;;;;19.80;100.00;100125.22;12155600;19;20023;-81
2023/09/02 07:42:23;;;;;;;5.05;2.20;;;;;;;20.12;100.00;100127.19;12189525;19;20114;-81
2023/09/02 07:46:25;;;;;;;7.57;3.30;;;;;;;20.32;100.00;100137.22;12177339;19;20010;-80
2023/09/02 07:50:27;;;;;;;5.82;4.05;;;;;;;20.43;100.00;100141.47;12173107;19;20019;-80
2023/09/02 07:54:29;;;;;;;7.57;3.53;;;;;;;20.51;100.00;100136.31;12195234;19;20073;-81
2023/09/02 07:58:30;;;;;;;6.85;4.63;;;;;;;20.60;100.00;100140.91;12192251;19;20080;-81
2023/09/02 08:02:32;;;;;;;12.00;6.37;;;;;;;20.75;100.00;100136.16;12173408;19;20078;-80
2023/09/02 08:06:36;;;;;;;19.10;7.90;;;;;;;20.85;100.00;100144.34;12190669;19;20145;-80
2023/09/02 08:10:38;;;;;;;12.35;6.75;;;;;;;21.05;100.00;100151.53;12193117;19;20425;-80
2023/09/02 08:14:41;;;;;;;10.50;6.13;;;;;;;21.20;100.00;100148.41;12171778;19;20003;-80
2023/09/02 08:18:42;;;;;;;10.37;5.67;;;;;;;21.26;100.00;100160.34;12192910;19;20003;-81
2023/09/02 08:22:44;;;;;;;12.35;7.38;;;;;;;21.27;100.00;100165.66;12198315;19;20021;-81
2023/09/02 08:26:46;;;;;;;17.23;6.43;;;;;;;21.28;100.00;100163.66;12178752;19;20011;-81
2023/09/02 08:30:47;;;;;;;10.47;6.77;;;;;;;21.27;100.00;100167.63;12197500;19;20027;-81
2023/09/02 08:34:51;;;;;;;9.70;6.13;;;;;;;21.36;100.00;100163.81;12209224;19;20011;-84
2023/09/02 08:38:53;;;;;;;8.55;5.70;;;;;;;21.41;100.00;100174.06;12177708;19;20006;-84
2023/09/02 08:42:55;;;;;;;11.07;6.33;;;;;;;21.64;100.00;100165.72;12203205;19;20074;-84
2023/09/02 08:47:01;;;;;;;9.93;6.50;;;;;;;21.72;100.00;100163.00;12199769;19;20010;-84
2023/09/02 08:51:03;;;;;;;9.95;5.43;;;;;;;21.83;100.00;100164.44;12174704;19;20018;-84
2023/09/02 08:55:07;;;;;;;8.52;5.30;;;;;;;21.85;100.00;100159.31;12209349;19;20513;-83
2023/09/02 08:59:13;;;;;;;8.80;5.25;;;;;;;22.03;100.00;100165.06;12172178;19;20034;-86
2023/09/02 09:03:18;;;;;;;;;;;;;;;22.10;100.00;100164.63;12198749;19;20463;-83
2023/09/02 09:07:21;;;;;;;6.80;5.13;;;;;;;22.22;100.00;100157.34;12197754;19;19918;-85
2023/09/02 09:11:24;;;;;;;7.82;4.93;;;;;;;22.27;100.00;100161.97;12178342;19;20047;-82
2023/09/02 09:15:26;;;;;;;8.10;4.35;;;;;;;22.50;100.00;100163.63;12201813;19;20074;-83
2023/09/02 09:19:39;;;;;;;6.72;3.65;;;;;;;22.61;100.00;100167.00;12199225;19;20014;-84
2023/09/02 09:23:43;;;;;;;9.40;3.67;;;;;;;22.68;100.00;100181.41;12177064;19;20017;-85
2023/09/02 09:27:44;;;;;;;6.93;3.40;;;;;;;22.75;100.00;100183.75;12194792;19;20000;-86
2023/09/02 09:31:48;;;;;;;4.43;3.60;;;;;;;22.92;100.00;100192.25;12197109;19;20003;-85
2023/09/02 09:35:50;;;;;;;4.22;3.25;;;;;;;23.04;100.00;100176.81;12173161;19;20041;-83
2023/09/02 09:39:53;;;;;;;5.33;2.80;;;;;;;23.31;100.00;100172.94;12195356;19;20086;-83
2023/09/02 09:44:06;;;;;;;4.85;3.40;;;;;;;23.68;100.00;100165.91;12193645;19;20011;-82
2023/09/02 09:48:09;;;;;;;3.35;2.65;;;;;;;23.78;100.00;100162.78;12171479;19;20002;-83
2023/09/02 09:52:12;;;;;;;2.50;2.03;;;;;;;24.13;99.31;100173.22;12193312;19;20031;-85
2023/09/02 09:56:13;;;;;;;;;;;;;;;24.41;95.71;100179.31;12176400;19;20018;-85
2023/09/02 10:00:15;;;;;;;2.20;1.73;;;;;;;24.73;95.55;100177.97;12187130;19;19973;-84
2023/09/02 10:04:17;;;;;;;2.20;1.80;;;;;;;24.72;93.53;100177.13;12195101;19;20014;-84
2023/09/02 10:08:20;;;;;;;2.80;1.80;;;;;;;24.88;92.05;100180.22;12176942;19;20021;-85
2023/09/02 10:12:22;;;;;;;2.70;1.92;;;;;;;25.16;88.91;100171.34;12200214;19;20010;-82
2023/09/02 10:16:25;;;;;;;2.22;1.70;;;;;;;25.15;86.37;100172.53;12199459;19;20659;-84
2023/09/02 10:20:29;;;;;;;4.22;2.20;;;;;;;25.36;87.18;100183.84;12172869;19;20011;-84
2023/09/02 10:24:40;;;;;;;3.55;1.88;;;;;;;25.44;85.76;100177.34;12192459;19;20101;-84
2023/09/02 10:28:42;;;;;;;3.13;1.80;;;;;;;25.65;82.86;100183.84;12195590;19;20018;-82
2023/09/02 10:32:50;;;;;;;2.67;1.58;;;;;;;25.82;81.64;100177.28;12174408;19;20022;-83
2023/09/02 10:36:56;;;;;;;1.60;1.23;;;;;;;26.01;82.66;100168.31;12192608;19;20048;-83
2023/09/02 10:41:06;;;;;;;2.25;1.48;;;;;;;26.26;78.95;100163.59;12200414;19;20027;-85
2023/09/02 10:45:09;;;;;;;2.33;1.60;;;;;;;26.35;80.12;100161.53;12178839;19;20352;-82
2023/09/02 10:49:33;;;;;;;3.67;1.55;;;;;;;26.42;76.28;100155.31;12196049;19;20339;-84
2023/09/02 10:53:47;;;;;;;3.83;1.73;;;;;;;26.58;76.92;100152.69;12173488;19;20006;-83
2023/09/02 10:57:51;;;;;;;3.15;1.65;;;;;;;26.74;76.06;100162.16;12196694;19;20380;-84
2023/09/02 11:01:57;;;;;;;2.42;1.50;;;;;;;26.66;71.98;100163.06;12191685;19;20006;-84
2023/09/02 11:06:06;;;;;;;2.70;1.70;;;;;;;26.85;74.16;100158.88;12171111;19;20089;-85
2023/09/02 11:10:53;;;;;;;3.92;1.40;;;;;;;26.90;73.90;100164.28;12189928;19;20029;-83
2023/09/02 11:15:07;;;;;;;2.38;1.48;;;;;;;26.95;68.58;100166.88;12165858;19;20066;-84
2023/09/02 11:19:12;;;;;;;4.20;1.50;;;;;;;26.89;65.64;100165.44;12190286;19;20007;-84
2023/09/02 11:23:20;;;;;;;2.70;1.50;;;;;;;26.92;70.16;100156.25;12167409;19;20020;-83
2023/09/02 11:27:43;;;;;;;1.75;1.23;;;;;;;26.95;63.83;100158.38;12187739;19;21528;-84
2023/09/02 11:31:58;;;;;;;3.03;1.42;;;;;;;26.68;66.54;100155.06;12189633;19;20003;-83
2023/09/02 12:13:14;;;;;;;1.88;1.05;;;;;;;30.30;51.68;100174.63;12209734;19;20868;-84
2023/09/02 12:17:17;;;;;;;2.38;1.30;;;;;;;30.23;51.09;100168.78;12189073;19;20522;-84
2023/09/02 12:21:19;;;;;;;1.63;1.25;;;;;;;30.86;50.80;100157.03;12207437;19;20356;-84
2023/09/02 12:25:24;;;;;;;2.70;1.48;;;;;;;31.72;49.04;100163.34;12210186;19;20003;-85
2023/09/02 12:29:27;;;;;;;3.95;1.40;;;;;;;32.39;47.14;100162.59;12186062;19;20722;-85
2023/09/02 12:33:29;;;;;;;2.35;1.08;;;;;;;32.73;45.92;100160.56;12206931;19;20091;-85
2023/09/02 12:38:03;;;;;;;3.10;1.60;;;;;;;33.18;44.31;100164.28;12222744;19;20003;-87
2023/09/02 12:42:25;;;;;;;2.50;1.52;;;;;;;33.80;39.90;100163.53;12195943;19;20022;-88
2023/09/02 12:46:29;;;;;;;1.42;1.30;;;;;;;33.95;39.56;100173.81;12225304;19;21081;-87
2023/09/02 12:50:43;;;;;;;2.03;1.75;;;;;;;33.99;39.46;100168.91;12244862;19;20007;-88
2023/09/02 13:27:37;;;;;;;2.35;1.30;;;;;;;36.79;34.79;100163.13;12220021;19;20007;-86
2023/09/02 13:37:41;;;;;;;1.60;1.20;;;;;;;37.52;33.45;100168.75;12209904;19;20018;-88
2023/09/02 13:42:03;;;;;;;1.40;1.30;;;;;;;38.37;31.96;100163.25;12181262;19;20010;-88
2023/09/02 13:46:09;;;;;;;2.55;1.30;;;;;;;38.13;31.51;100173.03;12208440;19;20003;-89
2023/09/02 13:50:15;;;;;;;1.77;1.40;;;;;;;38.05;31.60;100175.19;12212485;19;20010;-88
2023/09/02 13:54:31;;;;;;;3.15;1.40;;;;;;;38.16;31.39;100169.28;12180307;19;20336;-89
2023/09/02 13:58:42;;;;;;;1.65;1.40;;;;;;;37.60;32.20;100167.44;12211051;19;20006;-88
2023/09/02 14:02:48;;;;;;;1.55;1.00;;;;;;;36.08;33.51;100175.75;12184954;19;20018;-88
2023/09/02 14:06:52;;;;;;;2.83;1.15;;;;;;;34.65;34.80;100176.56;12202781;19;20014;-87
2023/09/02 14:10:58;;;;;;;1.73;1.30;;;;;;;33.21;36.52;100172.03;12203167;19;20024;-87
2023/09/02 14:15:04;;;;;;;1.70;1.25;;;;;;;32.13;38.57;100172.88;12192954;19;20011;-88
2023/09/02 14:19:06;;;;;;;1.80;1.13;;;;;;;31.09;40.69;100173.28;12209443;19;20018;-88
2023/09/02 14:23:27;;;;;;;1.95;1.20;;;;;;;30.45;41.98;100172.88;12207354;19;20107;-85
2023/09/02 14:27:58;;;;;;;1.85;0.98;;;;;;;30.06;42.87;100161.50;12182278;19;20358;-87
2023/09/02 14:32:04;;;;;;;2.65;1.40;;;;;;;30.48;42.60;100172.13;12208291;19;20023;-84
2023/09/02 14:36:09;;;;;;;1.98;1.33;;;;;;;31.08;41.78;100175.31;12189298;19;20139;-87
2023/09/02 14:40:11;;;;;;;;;;;;;;;31.99;40.76;100175.53;12209993;19;20010;-86
2023/09/02 14:44:18;;;;;;;1.42;1.10;;;;;;;32.36;38.75;100175.59;12218752;19;19907;-88
2023/09/02 14:48:24;;;;;;;1.92;1.23;;;;;;;32.18;39.33;100174.56;12234797;19;20040;-87
2023/09/02 14:53:03;;;;;;;1.80;1.10;;;;;;;32.05;38.92;100164.63;12266114;19;19999;-89
2023/09/02 14:57:35;;;;;;;1.98;1.40;;;;;;;31.91;39.64;100166.06;12215951;19;20007;-88
2023/09/02 15:01:48;;;;;;;4.57;1.30;;;;;;;31.49;40.43;100174.78;12205250;19;20023;-87
2023/09/02 15:05:57;;;;;;;1.83;1.08;;;;;;;31.02;42.00;100184.53;12180302;19;20010;-86
2023/09/02 15:09:59;;;;;;;1.75;1.15;;;;;;;30.57;42.97;100171.91;12202276;19;20010;-86
2023/09/02 15:14:06;;;;;;;2.10;1.13;;;;;;;30.13;43.90;100187.25;12198747;19;20006;-86
2023/09/02 15:18:25;;;;;;;3.40;1.30;;;;;;;29.77;45.87;100184.78;12179581;19;20006;-86
2023/09/02 15:22:27;;;;;;;3.80;1.88;;;;;;;29.41;45.68;100179.06;12201116;19;20041;-85
2023/09/02 15:26:32;;;;;;;3.50;1.80;;;;;;;29.05;47.73;100181.00;12176646;19;20484;-86
2023/09/02 15:30:40;;;;;;;2.65;1.40;;;;;;;28.77;48.15;100188.75;12191877;19;20018;-84
2023/09/02 15:34:49;;;;;;;2.50;1.30;;;;;;;28.52;48.73;100185.19;12194125;19;20081;-86
2023/09/02 15:38:52;;;;;;;1.83;1.10;;;;;;;28.24;49.56;100188.03;12173609;19;20024;-86
2023/09/02 15:42:59;;;;;;;3.05;1.25;;;;;;;28.20;50.58;100198.41;12197363;19;20030;-87
2023/09/02 15:47:12;;;;;;;3.83;1.60;;;;;;;28.23;51.67;100201.38;12193128;19;20002;-86
2023/09/02 15:51:14;;;;;;;2.80;1.48;;;;;;;28.20;52.38;100195.56;12178756;19;20007;-87
2023/09/02 15:55:18;;;;;;;2.60;1.52;;;;;;;28.22;53.22;100196.88;12195441;19;21228;-86
2023/09/02 15:59:35;;;;;;;6.45;1.42;;;;;;;28.15;53.27;100206.00;12181770;19;20003;-87
2023/09/02 16:03:37;;;;;;;;;;;;;;;28.11;52.57;100205.06;12231526;19;20018;-87
2023/09/02 16:07:40;;;;;;;2.47;1.40;;;;;;;28.23;53.96;100201.38;12206815;19;20003;-85
2023/09/02 16:11:42;;;;;;;2.25;1.40;;;;;;;28.14;54.49;100204.34;12170603;19;20003;-86
2023/09/02 16:15:44;;;;;;;4.65;1.50;;;;;;;28.02;57.32;100204.38;12197623;19;20003;-86
2023/09/02 16:19:46;;;;;;;1.98;1.30;;;;;;;27.91;56.80;100198.38;12187901;19;20110;-87
2023/09/02 16:23:48;;;;;;;3.70;1.42;;;;;;;27.96;56.61;100200.13;12168559;19;20476;-87
2023/09/02 16:27:58;;;;;;;3.20;1.30;;;;;;;27.86;56.73;100209.94;12191784;19;20102;-87
2023/09/02 16:32:05;;;;;;;2.40;1.20;;;;;;;27.75;58.25;100205.91;12196947;19;20006;-86
2023/09/02 16:36:09;;;;;;;4.35;1.23;;;;;;;27.62;59.08;100196.63;12176512;19;20172;-87
2023/09/02 16:40:11;;;;;;;5.65;1.42;;;;;;;27.52;59.16;100197.13;12187058;19;20003;-86
2023/09/02 16:44:13;;;;;;;8.00;1.23;;;;;;;27.38;60.38;100199.47;12203371;19;20351;-86
2023/09/02 16:48:29;;;;;;;3.95;1.38;;;;;;;27.23;60.80;100190.50;12168543;19;20014;-86
2023/09/02 16:52:31;;;;;;;1.83;1.27;;;;;;;27.15;61.02;100194.28;12189838;19;20019;-86
2023/09/02 16:56:36;;;;;;;2.70;1.40;;;;;;;27.00;63.42;100192.94;12178319;19;20007;-87
2023/09/02 17:01:03;;;;;;;5.10;1.77;;;;;;;26.81;66.36;100182.19;12199474;19;20080;-86
2023/09/02 17:05:24;;;;;;;2.47;1.20;;;;;;;26.56;68.30;100183.28;12201165;19;20014;-87
2023/09/02 17:09:27;;;;;;;4.10;1.90;;;;;;;26.32;67.43;100184.00;12177630;19;20018;-85
2023/09/02 17:13:44;;;;;;;6.43;1.90;;;;;;;26.21;70.02;100188.44;12201707;19;20054;-85
2023/09/02 17:17:55;;;;;;;4.70;1.65;;;;;;;25.96;72.09;100188.28;12178738;19;20339;-87
2023/09/02 17:22:05;;;;;;;7.88;2.17;;;;;;;25.66;74.95;100191.13;12200162;19;20098;-86
2023/09/02 17:26:37;;;;;;;8.35;2.13;;;;;;;25.41;77.59;100197.78;12174524;19;20011;-85
2023/09/02 17:30:53;;;;;;;6.35;1.60;;;;;;;25.17;78.95;100195.56;12196230;19;20006;-86
2023/09/02 17:45:35;;;;;;;5.13;2.45;;;;;;;24.34;86.86;100196.72;12195608;19;20364;-86
2023/09/02 17:49:43;;;;;;;4.85;2.28;;;;;;;24.17;87.84;100196.75;12191136;19;20003;-86
2023/09/02 17:53:44;;;;;;;6.10;1.83;;;;;;;23.97;89.21;100199.03;12174591;19;20408;-85
2023/09/02 17:57:46;;;;;;;5.20;1.67;;;;;;;23.75;91.54;100199.19;12194736;19;20015;-84
2023/09/02 18:01:48;;;;;;;3.57;1.60;;;;;;;23.55;93.19;100200.63;12204353;19;20292;-84
2023/09/02 18:05:51;;;;;;;5.17;1.50;;;;;;;23.32;95.09;100216.75;12175047;19;20023;-82
2023/09/02 18:09:53;;;;;;;7.18;1.50;;;;;;;23.09;97.81;100211.22;12199380;19;20023;-84
2023/09/02 18:13:58;;;;;;;5.35;1.63;;;;;;;22.93;99.03;100215.56;12199238;19;20213;-83
2023/09/02 18:18:01;;;;;;;9.40;1.83;;;;;;;22.80;100.00;100219.31;12168573;19;20010;-83
2023/09/02 18:22:03;;;;;;;7.43;3.35;;;;;;;22.65;100.00;100218.56;12196135;19;20038;-85
2023/09/02 18:26:05;;;;;;;10.43;2.85;;;;;;;22.51;100.00;100226.22;12199534;19;20355;-84
2023/09/02 18:30:08;;;;;;;13.37;4.87;;;;;;;22.41;100.00;100226.50;12175455;19;20010;-84
2023/09/02 18:34:12;;;;;;;11.80;4.30;;;;;;;22.33;100.00;100235.66;12197261;19;20011;-83
2023/09/02 18:38:14;;;;;;;9.47;4.03;;;;;;;22.23;100.00;100236.75;12196649;19;20011;-84
2023/09/02 18:42:15;;;;;;;8.73;3.03;;;;;;;22.12;100.00;100247.34;12174633;19;20374;-83
2023/09/02 18:46:17;;;;;;;12.63;5.40;;;;;;;22.05;100.00;100255.38;12201657;19;20080;-84
2023/09/02 18:50:19;;;;;;;13.70;4.97;;;;;;;21.99;100.00;100262.25;12195486;19;20047;-85
2023/09/02 18:54:21;;;;;;;8.23;3.50;;;;;;;21.93;100.00;100261.53;12174541;19;20010;-83
2023/09/02 18:58:22;;;;;;;10.60;4.17;;;;;;;21.88;100.00;100270.06;12193025;19;20010;-83
2023/09/02 19:02:24;;;;;;;11.10;3.13;;;;;;;21.78;100.00;100287.97;12194731;19;20032;-85
2023/09/02 19:06:26;;;;;;;8.07;2.73;;;;;;;21.69;100.00;100295.44;12173064;19;20003;-84
2023/09/02 19:10:28;;;;;;;16.60;5.93;;;;;;;21.62;100.00;100286.59;12189902;19;20086;-84
2023/09/02 19:14:30;;;;;;;19.07;9.40;;;;;;;21.57;100.00;100297.94;12175592;19;20010;-85
2023/09/02 19:18:32;;;;;;;21.65;11.70;;;;;;;21.45;100.00;100306.06;12194378;19;20030;-86
2023/09/02 19:22:41;;;;;;;16.58;8.85;;;;;;;21.35;100.00;100319.06;12193487;19;20016;-85
2023/09/02 19:26:43;;;;;;;12.15;5.03;;;;;;;21.29;100.00;100331.50;12170709;19;20066;-84
2023/09/02 19:30:51;;;;;;;5.03;1.80;;;;;;;21.23;100.00;100338.34;12191848;19;20002;-86
2023/09/02 19:34:53;;;;;;;6.25;2.03;;;;;;;21.14;100.00;100345.81;12192120;19;20483;-85
2023/09/02 19:38:56;;;;;;;7.63;2.00;;;;;;;21.11;100.00;100354.84;12176999;19;21135;-83
2023/09/02 19:42:58;;;;;;;9.18;2.05;;;;;;;21.06;100.00;100357.72;12191443;19;20015;-84
2023/09/02 19:47:00;;;;;;;5.63;1.93;;;;;;;21.00;100.00;100362.59;12191770;19;20003;-84
2023/09/02 19:51:02;;;;;;;11.75;3.10;;;;;;;20.96;100.00;100357.91;12170614;19;20342;-84
2023/09/02 19:55:05;;;;;;;9.07;2.50;;;;;;;20.92;100.00;100355.72;12199977;19;20501;-85
2023/09/02 19:59:07;;;;;;;3.78;1.60;;;;;;;20.91;100.00;100362.47;12196157;19;20028;-84
2023/09/02 20:03:11;;;;;;;8.43;1.53;;;;;;;20.85;100.00;100355.28;12170362;19;21035;-84
2023/09/02 20:07:13;;;;;;;5.75;1.30;;;;;;;20.78;100.00;100359.59;12193318;19;20062;-85